createdAt,value
2017-11-29T00:00:05.050Z,1.58
2017-11-29T00:01:10.784Z,1.64
2017-11-29T00:02:16.879Z,1.68
2017-11-29T00:03:23.014Z,1.58
2017-11-29T00:04:28.921Z,1.61
2017-11-29T00:05:35.900Z,1.66
2017-11-29T00:06:42.080Z,1.55
2017-11-29T00:07:48.204Z,1.59
2017-11-29T00:08:54.362Z,1.62
2017-11-29T00:10:00.505Z,1.56
2017-11-29T00:11:06.394Z,1.55
2017-11-29T00:12:12.182Z,1.59
2017-11-29T00:13:18.335Z,1.56
2017-11-29T00:14:24.466Z,1.56
2017-11-29T00:15:34.208Z,1.55
2017-11-29T00:16:40.071Z,1.49
2017-11-29T00:17:46.241Z,1.56
2017-11-29T00:18:52.199Z,1.59
2017-11-29T00:20:03.317Z,1.49
2017-11-29T00:21:09.532Z,1.46
2017-11-29T00:22:15.301Z,1.52
2017-11-29T00:23:21.182Z,1.64
2017-11-29T00:24:27.812Z,1.65
2017-11-29T00:25:35.312Z,1.68
2017-11-29T00:26:41.444Z,1.67
2017-11-29T00:27:47.223Z,1.64
2017-11-29T00:28:53.346Z,1.67
2017-11-29T00:29:59.523Z,1.58
2017-11-29T00:31:05.391Z,1.64
2017-11-29T00:32:11.645Z,1.68
2017-11-29T00:33:17.405Z,1.69
2017-11-29T00:34:23.512Z,1.72
2017-11-29T00:35:29.275Z,1.70
2017-11-29T00:36:35.076Z,1.80
2017-11-29T00:37:40.525Z,1.78
2017-11-29T00:38:46.018Z,1.78
2017-11-29T00:39:51.186Z,1.75
2017-11-29T00:40:57.008Z,1.73
2017-11-29T00:42:02.987Z,1.81
2017-11-29T00:43:09.444Z,1.85
2017-11-29T00:44:15.540Z,1.72
2017-11-29T00:45:21.634Z,1.70
2017-11-29T00:46:27.395Z,1.73
2017-11-29T00:47:33.533Z,1.69
2017-11-29T00:48:39.321Z,1.69
2017-11-29T00:49:45.419Z,1.76
2017-11-29T00:50:51.535Z,1.72
2017-11-29T00:51:57.306Z,1.55
2017-11-29T00:53:03.445Z,1.56
2017-11-29T00:54:09.662Z,1.55
2017-11-29T00:55:15.759Z,1.49
2017-11-29T00:56:21.527Z,1.54
2017-11-29T00:57:27.273Z,1.60
2017-11-29T00:58:33.222Z,1.64
2017-11-29T00:59:39.201Z,1.69
2017-11-29T01:00:45.122Z,1.69
2017-11-29T01:01:50.868Z,1.69
2017-11-29T01:02:56.800Z,1.55
2017-11-29T01:04:02.896Z,1.57
2017-11-29T01:05:08.813Z,1.61
2017-11-29T01:06:14.957Z,1.60
2017-11-29T01:07:21.109Z,1.64
2017-11-29T01:08:27.292Z,1.71
2017-11-29T01:09:33.455Z,1.81
2017-11-29T01:10:39.757Z,1.89
2017-11-29T01:11:45.875Z,1.83
2017-11-29T01:12:52.070Z,1.92
2017-11-29T01:14:01.074Z,1.90
2017-11-29T01:15:08.971Z,1.92
2017-11-29T01:16:15.124Z,1.91
2017-11-29T01:17:21.288Z,1.98
2017-11-29T01:18:27.392Z,2.03
2017-11-29T01:19:33.513Z,2.04
2017-11-29T01:20:39.606Z,2.04
2017-11-29T01:21:45.489Z,2.03
2017-11-29T01:22:51.571Z,2.07
2017-11-29T01:23:57.656Z,2.06
2017-11-29T01:25:03.774Z,2.14
2017-11-29T01:26:09.887Z,2.09
2017-11-29T01:27:16.003Z,2.08
2017-11-29T01:28:22.165Z,2.02
2017-11-29T01:29:28.408Z,1.98
2017-11-29T01:30:34.508Z,1.97
2017-11-29T01:31:40.623Z,1.97
2017-11-29T01:32:46.739Z,1.93
2017-11-29T01:33:52.935Z,2.00
2017-11-29T01:34:59.050Z,2.02
2017-11-29T01:36:06.905Z,2.05
2017-11-29T01:37:13.042Z,2.04
2017-11-29T01:38:19.446Z,2.11
2017-11-29T01:39:25.608Z,2.09
2017-11-29T01:40:31.734Z,2.07
2017-11-29T01:41:37.906Z,2.09
2017-11-29T01:42:44.061Z,2.13
2017-11-29T01:43:49.988Z,2.10
2017-11-29T01:44:56.087Z,2.09
2017-11-29T01:46:02.064Z,2.11
2017-11-29T01:47:09.913Z,2.07
2017-11-29T01:48:15.645Z,2.09
2017-11-29T01:49:21.238Z,2.05
2017-11-29T01:50:27.347Z,2.04
2017-11-29T01:51:33.330Z,2.13
2017-11-29T01:52:39.073Z,2.16
2017-11-29T01:53:44.974Z,2.06
2017-11-29T01:54:50.897Z,2.13
2017-11-29T01:56:00.284Z,2.19
2017-11-29T01:57:06.417Z,2.22
2017-11-29T01:58:12.518Z,2.27
2017-11-29T01:59:18.627Z,2.17
2017-11-29T02:00:23.891Z,2.17
2017-11-29T02:01:28.747Z,2.19
2017-11-29T02:02:34.515Z,2.13
2017-11-29T02:03:40.120Z,2.04
2017-11-29T02:04:46.216Z,2.05
2017-11-29T02:05:51.613Z,2.09
2017-11-29T02:06:57.565Z,2.13
2017-11-29T02:08:03.742Z,2.14
2017-11-29T02:09:09.540Z,2.14
2017-11-29T02:10:16.368Z,2.14
2017-11-29T02:11:26.748Z,2.20
2017-11-29T02:12:32.891Z,2.23
2017-11-29T02:13:39.010Z,2.25
2017-11-29T02:14:45.076Z,2.27
2017-11-29T02:15:51.160Z,2.26
2017-11-29T02:16:57.021Z,2.28
2017-11-29T02:18:03.166Z,2.27
2017-11-29T02:19:08.548Z,2.31
2017-11-29T02:20:13.923Z,2.22
2017-11-29T02:21:19.633Z,2.18
2017-11-29T02:22:25.079Z,2.08
2017-11-29T02:23:30.296Z,2.08
2017-11-29T02:24:35.733Z,2.09
2017-11-29T02:25:41.167Z,2.08
2017-11-29T02:26:46.368Z,2.08
2017-11-29T02:27:51.604Z,2.11
2017-11-29T02:28:56.901Z,2.12
2017-11-29T02:30:02.093Z,2.04
2017-11-29T02:31:07.525Z,2.13
2017-11-29T02:32:12.739Z,2.18
2017-11-29T02:33:18.291Z,2.25
2017-11-29T02:34:23.746Z,2.29
2017-11-29T02:35:28.953Z,2.16
2017-11-29T02:36:40.092Z,2.06
2017-11-29T02:37:45.360Z,2.09
2017-11-29T02:38:51.585Z,2.10
2017-11-29T02:40:18.172Z,2.03
2017-11-29T02:52:19.833Z,2.09
2017-11-29T02:53:25.010Z,2.09
2017-11-29T02:54:30.358Z,2.10
2017-11-29T02:55:39.549Z,2.13
2017-11-29T02:56:44.730Z,2.14
2017-11-29T02:57:50.323Z,2.15
2017-11-29T02:58:55.560Z,2.21
2017-11-29T03:00:01.040Z,2.17
2017-11-29T03:01:06.310Z,2.14
2017-11-29T03:02:11.867Z,2.14
2017-11-29T03:03:17.755Z,2.11
2017-11-29T03:04:23.829Z,2.08
2017-11-29T03:05:29.936Z,2.04
2017-11-29T03:06:35.675Z,2.03
2017-11-29T03:07:41.760Z,1.97
2017-11-29T03:08:47.552Z,1.87
2017-11-29T03:09:53.516Z,1.78
2017-11-29T03:10:59.624Z,1.87
2017-11-29T03:12:06.051Z,1.91
2017-11-29T03:13:12.213Z,1.89
2017-11-29T03:14:18.292Z,1.81
2017-11-29T03:15:24.430Z,1.83
2017-11-29T03:16:30.536Z,1.81
2017-11-29T03:17:36.675Z,1.79
2017-11-29T03:18:42.799Z,1.77
2017-11-29T03:19:48.725Z,1.70
2017-11-29T03:20:54.881Z,1.68
2017-11-29T03:22:00.947Z,1.73
2017-11-29T03:23:07.024Z,1.85
2017-11-29T03:24:13.102Z,1.86
2017-11-29T03:25:19.183Z,1.90
2017-11-29T03:26:25.307Z,1.86
2017-11-29T03:27:31.228Z,1.89
2017-11-29T03:28:37.336Z,1.90
2017-11-29T03:29:43.486Z,1.85
2017-11-29T03:30:49.578Z,1.79
2017-11-29T03:31:55.719Z,1.84
2017-11-29T03:33:01.918Z,1.69
2017-11-29T03:34:08.605Z,1.72
2017-11-29T03:35:14.691Z,1.79
2017-11-29T03:36:20.797Z,1.84
2017-11-29T03:37:26.978Z,1.88
2017-11-29T03:38:33.159Z,1.96
2017-11-29T03:39:39.308Z,1.97
2017-11-29T03:40:49.603Z,1.89
2017-11-29T03:41:55.766Z,1.89
2017-11-29T03:43:01.916Z,1.91
2017-11-29T03:44:08.234Z,1.76
2017-11-29T03:45:14.465Z,1.80
2017-11-29T03:46:20.596Z,1.87
2017-11-29T03:47:26.702Z,1.88
2017-11-29T03:48:32.787Z,1.91
2017-11-29T03:49:38.926Z,1.99
2017-11-29T03:50:45.052Z,2.04
2017-11-29T03:51:51.031Z,2.02
2017-11-29T03:52:57.235Z,2.09
2017-11-29T03:54:09.251Z,2.09
2017-11-29T03:55:15.336Z,2.02
2017-11-29T03:56:21.431Z,2.01
2017-11-29T03:57:27.526Z,1.99
2017-11-29T03:58:33.653Z,2.02
2017-11-29T03:59:39.771Z,2.06
2017-11-29T04:00:45.854Z,2.05
2017-11-29T04:01:52.160Z,2.10
2017-11-29T04:02:58.604Z,2.00
2017-11-29T04:04:04.726Z,2.01
2017-11-29T04:05:10.825Z,1.95
2017-11-29T04:06:16.926Z,1.93
2017-11-29T04:07:23.081Z,1.90
2017-11-29T04:08:28.888Z,1.90
2017-11-29T04:09:34.400Z,1.91
2017-11-29T04:10:39.896Z,1.85
2017-11-29T04:11:48.042Z,1.78
2017-11-29T04:12:53.336Z,1.83
2017-11-29T04:13:58.818Z,1.79
2017-11-29T04:15:04.582Z,1.83
2017-11-29T04:16:10.196Z,1.82
2017-11-29T04:17:15.949Z,1.78
2017-11-29T04:18:21.375Z,1.80
2017-11-29T04:19:27.219Z,1.75
2017-11-29T04:20:32.635Z,1.72
2017-11-29T04:21:38.106Z,1.72
2017-11-29T04:22:43.329Z,1.74
2017-11-29T04:23:49.066Z,1.66
2017-11-29T04:24:55.188Z,1.59
2017-11-29T04:26:00.959Z,1.64
2017-11-29T04:27:06.568Z,1.56
2017-11-29T04:28:12.376Z,1.48
2017-11-29T04:29:18.141Z,1.50
2017-11-29T04:30:23.753Z,1.54
2017-11-29T04:31:29.663Z,1.49
2017-11-29T04:32:35.815Z,1.51
2017-11-29T04:33:41.950Z,1.46
2017-11-29T04:34:48.085Z,1.52
2017-11-29T04:35:54.226Z,1.34
2017-11-29T04:37:00.190Z,1.25
2017-11-29T04:38:06.291Z,1.31
2017-11-29T04:39:12.444Z,1.35
2017-11-29T04:40:18.571Z,1.13
2017-11-29T04:41:24.779Z,1.14
2017-11-29T04:42:30.974Z,1.12
2017-11-29T04:43:36.890Z,1.05
2017-11-29T04:44:42.710Z,1.01
2017-11-29T04:45:48.819Z,0.91
2017-11-29T04:46:54.900Z,0.96
2017-11-29T04:48:01.058Z,1.00
2017-11-29T04:49:06.469Z,1.06
2017-11-29T04:50:12.245Z,0.99
2017-11-29T04:51:17.974Z,0.91
2017-11-29T04:52:23.240Z,1.04
2017-11-29T04:53:29.399Z,1.07
2017-11-29T04:54:35.173Z,0.96
2017-11-29T04:55:40.576Z,0.97
2017-11-29T04:56:46.353Z,1.04
2017-11-29T04:57:55.471Z,1.13
2017-11-29T04:59:00.491Z,1.12
2017-11-29T05:00:06.005Z,1.15
2017-11-29T05:01:11.102Z,1.23
2017-11-29T05:02:16.850Z,1.23
2017-11-29T05:03:22.674Z,1.10
2017-11-29T05:04:28.945Z,1.15
2017-11-29T05:05:34.425Z,1.11
2017-11-29T05:06:39.469Z,1.07
2017-11-29T05:07:44.985Z,1.00
2017-11-29T05:08:50.797Z,1.03
2017-11-29T05:09:56.288Z,1.04
2017-11-29T05:11:01.824Z,1.01
2017-11-29T05:12:07.242Z,1.03
2017-11-29T05:13:14.721Z,1.12
2017-11-29T05:14:21.671Z,1.07
2017-11-29T05:15:27.369Z,1.06
2017-11-29T05:16:33.093Z,1.05
2017-11-29T05:17:38.552Z,1.00
2017-11-29T05:18:44.669Z,0.80
2017-11-29T05:19:50.373Z,0.74
2017-11-29T05:20:57.113Z,0.68
2017-11-29T05:22:02.887Z,0.62
2017-11-29T05:23:08.380Z,0.50
2017-11-29T05:24:13.808Z,0.51
2017-11-29T05:25:19.233Z,0.52
2017-11-29T05:26:24.819Z,0.50
2017-11-29T05:27:30.306Z,0.47
2017-11-29T05:28:35.805Z,0.62
2017-11-29T05:29:41.258Z,0.66
2017-11-29T05:30:46.460Z,0.72
2017-11-29T05:31:51.899Z,0.59
2017-11-29T05:32:57.102Z,0.65
2017-11-29T05:34:02.572Z,0.71
2017-11-29T05:35:08.023Z,0.78
2017-11-29T05:36:13.213Z,0.74
2017-11-29T05:37:18.718Z,0.75
2017-11-29T05:38:24.276Z,0.80
2017-11-29T05:39:29.805Z,0.81
2017-11-29T05:40:35.749Z,0.84
2017-11-29T05:41:41.612Z,0.84
2017-11-29T05:42:47.090Z,0.87
2017-11-29T05:43:52.359Z,0.84
2017-11-29T05:44:57.835Z,0.84
2017-11-29T05:46:03.106Z,0.85
2017-11-29T05:47:08.525Z,0.90
2017-11-29T05:48:14.252Z,0.86
2017-11-29T05:49:20.065Z,0.82
2017-11-29T05:50:32.604Z,0.77
2017-11-29T05:51:37.846Z,0.74
2017-11-29T05:52:43.083Z,0.65
2017-11-29T05:53:48.561Z,0.60
2017-11-29T05:54:53.790Z,0.59
2017-11-29T05:55:59.674Z,0.64
2017-11-29T05:57:05.484Z,0.60
2017-11-29T05:58:10.951Z,0.55
2017-11-29T05:59:17.141Z,0.56
2017-11-29T06:00:22.553Z,0.59
2017-11-29T06:01:27.825Z,0.61
2017-11-29T06:02:33.576Z,0.67
2017-11-29T06:03:38.999Z,0.71
2017-11-29T06:04:44.601Z,0.74
2017-11-29T06:05:49.843Z,0.76
2017-11-29T06:06:55.052Z,0.78
2017-11-29T06:08:00.502Z,0.74
2017-11-29T06:09:06.346Z,0.77
2017-11-29T06:10:12.144Z,0.77
2017-11-29T06:11:17.696Z,0.78
2017-11-29T06:12:23.514Z,0.79
2017-11-29T06:13:28.968Z,0.84
2017-11-29T06:14:34.460Z,0.85
2017-11-29T06:15:39.863Z,0.75
2017-11-29T06:16:45.590Z,0.76
2017-11-29T06:17:50.802Z,0.81
2017-11-29T06:18:56.618Z,0.70
2017-11-29T06:20:02.018Z,0.73
2017-11-29T06:21:07.427Z,0.68
2017-11-29T06:22:12.909Z,0.71
2017-11-29T06:23:19.078Z,0.69
2017-11-29T06:24:24.813Z,0.68
2017-11-29T06:25:30.975Z,0.65
2017-11-29T06:26:36.568Z,0.67
2017-11-29T06:27:42.045Z,0.59
2017-11-29T06:28:47.595Z,0.49
2017-11-29T06:29:53.395Z,0.48
2017-11-29T06:30:59.330Z,0.48
2017-11-29T06:32:05.527Z,0.55
2017-11-29T06:33:11.624Z,0.57
2017-11-29T06:34:17.614Z,0.43
2017-11-29T06:35:23.762Z,0.30
2017-11-29T06:36:29.916Z,0.31
2017-11-29T06:37:35.851Z,0.41
2017-11-29T06:38:42.016Z,0.36
2017-11-29T06:39:48.167Z,0.40
2017-11-29T06:40:54.321Z,0.47
2017-11-29T06:42:00.773Z,0.57
2017-11-29T06:43:06.894Z,0.57
2017-11-29T06:44:13.046Z,0.53
2017-11-29T06:45:19.313Z,0.52
2017-11-29T06:46:25.410Z,0.55
2017-11-29T06:47:31.556Z,0.54
2017-11-29T06:48:37.733Z,0.39
2017-11-29T06:49:43.982Z,0.34
2017-11-29T06:50:50.076Z,0.43
2017-11-29T06:51:56.589Z,0.37
2017-11-29T06:53:02.950Z,0.38
2017-11-29T06:54:11.028Z,0.42
2017-11-29T06:55:19.398Z,0.43
2017-11-29T06:56:25.584Z,0.46
2017-11-29T06:57:31.681Z,0.47
2017-11-29T06:58:37.804Z,0.41
2017-11-29T06:59:43.565Z,0.35
2017-11-29T07:00:49.853Z,0.24
2017-11-29T07:01:55.986Z,0.23
2017-11-29T07:03:02.959Z,0.23
2017-11-29T07:04:09.805Z,0.32
2017-11-29T07:05:15.944Z,0.33
2017-11-29T07:06:22.161Z,0.38
2017-11-29T07:07:28.305Z,0.40
2017-11-29T07:08:34.480Z,0.31
2017-11-29T07:09:40.638Z,0.35
2017-11-29T07:10:46.774Z,0.36
2017-11-29T07:11:52.907Z,0.38
2017-11-29T07:12:59.017Z,0.33
2017-11-29T07:14:05.207Z,0.38
2017-11-29T07:15:11.385Z,0.41
2017-11-29T07:16:17.489Z,0.49
2017-11-29T07:17:23.578Z,0.48
2017-11-29T07:18:29.698Z,0.43
2017-11-29T07:19:35.856Z,0.43
2017-11-29T07:20:42.016Z,0.38
2017-11-29T07:21:48.105Z,0.35
2017-11-29T07:22:54.298Z,0.36
2017-11-29T07:24:00.411Z,0.37
2017-11-29T07:25:06.360Z,0.37
2017-11-29T07:26:12.502Z,0.33
2017-11-29T07:27:18.659Z,0.28
2017-11-29T07:28:24.593Z,0.29
2017-11-29T07:29:30.757Z,0.36
2017-11-29T07:30:36.499Z,0.39
2017-11-29T07:31:42.698Z,0.36
2017-11-29T07:32:48.875Z,0.40
2017-11-29T07:33:54.995Z,0.42
2017-11-29T07:35:01.160Z,0.52
2017-11-29T07:36:07.110Z,0.55
2017-11-29T07:37:13.101Z,0.52
2017-11-29T07:38:19.233Z,0.63
2017-11-29T07:39:25.414Z,0.53
2017-11-29T07:40:31.194Z,0.54
2017-11-29T07:41:37.359Z,0.46
2017-11-29T07:42:43.515Z,0.48
2017-11-29T07:43:49.690Z,0.50
2017-11-29T07:44:55.839Z,0.54
2017-11-29T07:46:02.020Z,0.62
2017-11-29T07:47:08.234Z,0.57
2017-11-29T07:48:14.317Z,0.57
2017-11-29T07:49:26.366Z,0.73
2017-11-29T07:50:32.494Z,0.86
2017-11-29T07:51:38.587Z,0.78
2017-11-29T07:52:44.772Z,0.70
2017-11-29T07:53:50.887Z,0.71
2017-11-29T07:54:57.434Z,0.76
2017-11-29T07:56:03.605Z,0.91
2017-11-29T07:57:09.764Z,1.04
2017-11-29T07:58:15.903Z,1.11
2017-11-29T07:59:22.111Z,1.15
2017-11-29T08:00:28.277Z,1.06
2017-11-29T08:01:34.061Z,1.04
2017-11-29T08:02:40.049Z,1.13
2017-11-29T08:03:46.138Z,1.21
2017-11-29T08:04:52.074Z,1.24
2017-11-29T08:05:58.249Z,1.28
2017-11-29T08:07:04.382Z,1.28
2017-11-29T08:08:10.532Z,1.32
2017-11-29T08:09:16.718Z,1.39
2017-11-29T08:10:22.845Z,1.41
2017-11-29T08:11:29.065Z,1.47
2017-11-29T08:12:35.165Z,1.34
2017-11-29T08:13:41.308Z,1.43
2017-11-29T08:14:47.509Z,1.42
2017-11-29T08:15:53.514Z,1.42
2017-11-29T08:16:59.665Z,1.45
2017-11-29T08:18:05.624Z,1.48
2017-11-29T08:19:11.793Z,1.54
2017-11-29T08:20:17.763Z,1.56
2017-11-29T08:21:23.954Z,1.63
2017-11-29T08:22:29.963Z,1.64
2017-11-29T08:23:35.897Z,1.70
2017-11-29T08:24:42.030Z,1.72
2017-11-29T08:25:47.845Z,1.76
2017-11-29T08:26:53.630Z,1.65
2017-11-29T08:27:59.715Z,1.68
2017-11-29T08:29:05.506Z,1.52
2017-11-29T08:30:10.992Z,1.54
2017-11-29T08:31:16.968Z,1.52
2017-11-29T08:32:22.726Z,1.43
2017-11-29T08:33:28.815Z,1.51
2017-11-29T08:34:34.932Z,1.57
2017-11-29T08:35:40.530Z,1.54
2017-11-29T08:36:46.267Z,1.65
2017-11-29T08:37:52.057Z,1.62
2017-11-29T08:38:57.656Z,1.67
2017-11-29T08:40:03.135Z,1.54
2017-11-29T08:41:08.939Z,1.63
2017-11-29T08:42:14.380Z,1.63
2017-11-29T08:43:19.921Z,1.65
2017-11-29T08:44:25.572Z,1.72
2017-11-29T08:45:31.799Z,1.67
2017-11-29T08:46:37.595Z,1.67
2017-11-29T08:47:43.047Z,1.67
2017-11-29T08:48:48.470Z,1.63
2017-11-29T08:49:53.973Z,1.65
2017-11-29T08:50:59.421Z,1.65
2017-11-29T08:52:04.670Z,1.57
2017-11-29T08:53:10.103Z,1.54
2017-11-29T08:54:15.600Z,1.60
2017-11-29T08:55:21.428Z,1.49
2017-11-29T08:56:27.193Z,1.58
2017-11-29T08:57:32.998Z,1.58
2017-11-29T08:58:38.490Z,1.62
2017-11-29T08:59:43.944Z,1.60
2017-11-29T09:00:49.354Z,1.57
2017-11-29T09:01:54.768Z,1.55
2017-11-29T09:03:00.883Z,1.53
2017-11-29T09:04:06.172Z,1.55
2017-11-29T09:05:11.687Z,1.67
2017-11-29T09:06:19.259Z,1.64
2017-11-29T09:07:24.682Z,1.70
2017-11-29T09:08:29.918Z,1.70
2017-11-29T09:09:35.423Z,1.73
2017-11-29T09:10:42.730Z,1.65
2017-11-29T09:11:50.190Z,1.79
2017-11-29T09:12:55.643Z,1.78
2017-11-29T09:14:00.875Z,1.90
2017-11-29T09:15:06.183Z,1.93
2017-11-29T09:16:11.469Z,1.88
2017-11-29T09:17:16.884Z,1.93
2017-11-29T09:18:22.110Z,2.00
2017-11-29T09:19:27.318Z,2.10
2017-11-29T09:20:33.133Z,2.06
2017-11-29T09:21:38.376Z,1.98
2017-11-29T09:22:43.804Z,2.07
2017-11-29T09:23:49.034Z,2.17
2017-11-29T09:24:54.512Z,2.15
2017-11-29T09:25:59.734Z,2.21
2017-11-29T09:27:06.095Z,2.21
2017-11-29T09:28:11.538Z,2.23
2017-11-29T09:29:16.993Z,2.27
2017-11-29T09:30:22.574Z,2.32
2017-11-29T09:31:28.216Z,2.30
2017-11-29T09:32:33.250Z,2.31
2017-11-29T09:33:38.804Z,2.40
2017-11-29T09:34:44.392Z,2.39
2017-11-29T09:35:50.043Z,2.42
2017-11-29T09:36:55.330Z,2.49
2017-11-29T09:38:00.581Z,2.44
2017-11-29T09:39:05.878Z,2.50
2017-11-29T09:40:13.046Z,2.59
2017-11-29T09:41:18.437Z,2.60
2017-11-29T09:42:23.668Z,2.63
2017-11-29T09:43:29.348Z,2.64
2017-11-29T09:44:34.931Z,2.63
2017-11-29T09:45:40.424Z,2.72
2017-11-29T09:46:45.707Z,2.78
2017-11-29T09:47:51.004Z,2.75
2017-11-29T09:48:57.450Z,2.71
2017-11-29T09:50:02.501Z,2.70
2017-11-29T09:51:07.755Z,2.68
2017-11-29T09:52:13.471Z,2.65
2017-11-29T09:53:18.693Z,2.77
2017-11-29T09:54:24.135Z,2.72
2017-11-29T09:55:29.358Z,2.82
2017-11-29T09:56:38.381Z,2.86
2017-11-29T09:57:43.761Z,2.93
2017-11-29T09:58:48.984Z,3.03
2017-11-29T09:59:54.279Z,3.05
2017-11-29T10:00:59.538Z,3.08
2017-11-29T10:02:07.129Z,2.95
2017-11-29T10:03:12.403Z,2.99
2017-11-29T10:04:17.691Z,2.98
2017-11-29T10:05:22.910Z,2.94
2017-11-29T10:06:28.215Z,3.06
2017-11-29T10:07:33.477Z,3.15
2017-11-29T10:08:38.736Z,3.11
2017-11-29T10:09:43.982Z,3.00
2017-11-29T10:10:49.186Z,2.97
2017-11-29T10:11:54.478Z,2.83
2017-11-29T10:12:59.758Z,2.86
2017-11-29T10:14:04.974Z,2.79
2017-11-29T10:15:10.478Z,2.70
2017-11-29T10:16:16.020Z,2.75
2017-11-29T10:17:21.212Z,2.76
2017-11-29T10:18:27.530Z,2.79
2017-11-29T10:19:32.955Z,2.89
2017-11-29T10:20:38.184Z,3.05
2017-11-29T10:21:43.663Z,3.15
2017-11-29T10:22:48.926Z,3.00
2017-11-29T10:23:54.305Z,3.01
2017-11-29T10:24:59.515Z,2.88
2017-11-29T10:26:04.925Z,2.85
2017-11-29T10:27:10.392Z,2.87
2017-11-29T10:28:15.929Z,2.94
2017-11-29T10:29:21.149Z,3.08
2017-11-29T10:30:26.380Z,3.04
2017-11-29T10:31:31.802Z,3.00
2017-11-29T10:32:37.019Z,2.95
2017-11-29T10:33:42.288Z,3.01
2017-11-29T10:34:47.431Z,3.21
2017-11-29T10:35:52.644Z,3.37
2017-11-29T10:36:57.946Z,3.49
2017-11-29T10:38:03.239Z,3.65
2017-11-29T10:39:08.501Z,3.86
2017-11-29T10:40:19.153Z,3.68
2017-11-29T10:41:26.466Z,3.69
2017-11-29T10:42:35.640Z,3.84
2017-11-29T10:43:41.085Z,3.99
2017-11-29T10:44:46.566Z,3.84
2017-11-29T10:45:51.839Z,3.82
2017-11-29T10:46:57.141Z,3.94
2017-11-29T10:48:03.267Z,4.07
2017-11-29T10:49:08.693Z,4.15
2017-11-29T10:50:13.943Z,4.24
2017-11-29T10:51:19.214Z,4.29
2017-11-29T10:52:24.883Z,4.23
2017-11-29T10:53:30.123Z,4.31
2017-11-29T10:54:35.390Z,4.26
2017-11-29T10:55:40.793Z,4.31
2017-11-29T10:56:46.426Z,4.40
2017-11-29T10:57:51.780Z,4.49
2017-11-29T10:58:56.776Z,4.51
2017-11-29T11:00:02.014Z,4.53
2017-11-29T11:01:07.285Z,4.53
2017-11-29T11:02:12.533Z,4.56
2017-11-29T11:03:17.815Z,4.63
2017-11-29T11:04:23.084Z,4.67
2017-11-29T11:05:28.675Z,4.50
2017-11-29T11:06:41.556Z,4.49
2017-11-29T11:07:46.836Z,4.50
2017-11-29T11:08:52.068Z,4.54
2017-11-29T11:10:01.291Z,4.57
2017-11-29T11:11:06.530Z,4.49
2017-11-29T11:12:12.494Z,4.45
2017-11-29T11:13:17.964Z,4.17
2017-11-29T11:14:23.276Z,4.17
2017-11-29T11:15:28.491Z,4.27
2017-11-29T11:16:33.943Z,4.29
2017-11-29T11:17:39.237Z,4.28
2017-11-29T11:18:44.939Z,4.45
2017-11-29T11:19:56.945Z,4.53
2017-11-29T11:21:02.393Z,4.62
2017-11-29T11:22:07.601Z,4.63
2017-11-29T11:23:12.848Z,4.56
2017-11-29T11:24:18.648Z,4.40
2017-11-29T11:25:23.678Z,4.46
2017-11-29T11:26:29.164Z,4.58
2017-11-29T11:27:34.230Z,4.68
2017-11-29T11:28:39.492Z,4.68
2017-11-29T11:29:44.630Z,4.77
2017-11-29T11:30:49.865Z,4.83
2017-11-29T11:31:55.316Z,4.89
2017-11-29T11:33:00.520Z,4.93
2017-11-29T11:34:05.633Z,4.91
2017-11-29T11:35:10.853Z,4.95
2017-11-29T11:36:16.261Z,4.93
2017-11-29T11:37:21.517Z,4.87
2017-11-29T11:38:26.940Z,4.84
2017-11-29T11:39:32.151Z,4.88
2017-11-29T11:40:37.545Z,4.89
2017-11-29T11:41:42.627Z,4.85
2017-11-29T11:42:48.111Z,4.86
2017-11-29T11:43:53.302Z,4.89
2017-11-29T11:44:58.798Z,4.95
2017-11-29T11:46:07.649Z,5.02
2017-11-29T11:47:12.948Z,5.02
2017-11-29T11:48:18.462Z,4.99
2017-11-29T11:49:23.998Z,5.08
2017-11-29T11:50:29.304Z,5.11
2017-11-29T11:51:34.513Z,5.19
2017-11-29T11:52:39.957Z,5.25
2017-11-29T11:53:45.174Z,5.20
2017-11-29T11:54:50.653Z,5.11
2017-11-29T11:55:56.161Z,5.21
2017-11-29T11:57:01.176Z,5.32
2017-11-29T11:58:06.425Z,5.37
2017-11-29T11:59:11.864Z,5.36
2017-11-29T12:00:17.136Z,5.37
2017-11-29T12:01:23.063Z,5.40
2017-11-29T12:02:28.836Z,5.25
2017-11-29T12:03:34.225Z,5.26
2017-11-29T12:04:41.231Z,5.24
2017-11-29T12:05:46.668Z,5.29
2017-11-29T12:06:52.420Z,5.28
2017-11-29T12:07:57.821Z,5.35
2017-11-29T12:09:03.381Z,5.43
2017-11-29T12:10:08.845Z,5.46
2017-11-29T12:11:14.292Z,5.23
2017-11-29T12:12:20.112Z,5.16
2017-11-29T12:13:25.565Z,5.20
2017-11-29T12:14:30.966Z,5.27
2017-11-29T12:15:36.383Z,5.36
2017-11-29T12:16:41.838Z,5.16
2017-11-29T12:17:47.293Z,5.00
2017-11-29T12:18:52.673Z,5.10
2017-11-29T12:19:58.054Z,5.01
2017-11-29T12:21:04.332Z,5.08
2017-11-29T12:22:09.759Z,4.98
2017-11-29T12:23:15.245Z,4.96
2017-11-29T12:24:20.681Z,4.99
2017-11-29T12:25:26.076Z,5.12
2017-11-29T12:26:31.460Z,5.24
2017-11-29T12:27:36.869Z,5.28
2017-11-29T12:28:42.339Z,5.33
2017-11-29T12:29:47.708Z,5.36
2017-11-29T12:30:52.889Z,5.43
2017-11-29T12:31:58.321Z,5.45
2017-11-29T12:33:04.126Z,5.46
2017-11-29T12:34:09.296Z,5.46
2017-11-29T12:35:15.084Z,5.49
2017-11-29T12:36:20.515Z,5.54
2017-11-29T12:37:25.948Z,5.59
2017-11-29T12:38:31.360Z,5.59
2017-11-29T12:39:36.768Z,5.61
2017-11-29T12:40:42.228Z,5.65
2017-11-29T12:41:47.622Z,5.66
2017-11-29T12:42:53.068Z,5.68
2017-11-29T12:43:58.649Z,5.68
2017-11-29T12:45:04.357Z,5.70
2017-11-29T12:46:09.548Z,5.68
2017-11-29T12:47:14.996Z,5.63
2017-11-29T12:48:32.233Z,5.57
2017-11-29T12:49:49.021Z,5.08
2017-11-29T12:51:05.930Z,4.98
2017-11-29T12:52:11.196Z,4.81
2017-11-29T12:53:16.936Z,4.74
2017-11-29T12:54:22.333Z,4.73
2017-11-29T12:55:28.108Z,4.71
2017-11-29T12:56:36.919Z,4.67
2017-11-29T12:57:42.337Z,4.80
2017-11-29T12:58:48.087Z,4.83
2017-11-29T12:59:53.525Z,4.89
2017-11-29T13:00:59.501Z,4.95
2017-11-29T13:02:04.815Z,4.99
2017-11-29T13:03:10.174Z,5.07
2017-11-29T13:04:15.375Z,5.11
2017-11-29T13:05:24.102Z,5.12
2017-11-29T13:06:29.302Z,5.12
2017-11-29T13:07:35.883Z,5.13
2017-11-29T13:08:42.315Z,5.13
2017-11-29T13:09:47.738Z,5.18
2017-11-29T13:10:53.199Z,5.06
2017-11-29T13:11:58.618Z,5.07
2017-11-29T13:13:04.504Z,5.07
2017-11-29T13:14:10.291Z,5.10
2017-11-29T13:15:15.806Z,5.09
2017-11-29T13:16:21.537Z,5.12
2017-11-29T13:17:26.966Z,5.14
2017-11-29T13:18:32.402Z,5.12
2017-11-29T13:19:38.324Z,5.10
2017-11-29T13:20:43.681Z,5.08
2017-11-29T13:21:49.061Z,5.10
2017-11-29T13:22:54.462Z,5.08
2017-11-29T13:24:02.847Z,5.07
2017-11-29T13:25:08.058Z,5.06
2017-11-29T13:26:14.020Z,5.05
2017-11-29T13:27:19.442Z,5.04
2017-11-29T13:28:24.667Z,5.04
2017-11-29T13:29:30.038Z,5.03
2017-11-29T13:30:35.557Z,5.00
2017-11-29T13:31:41.078Z,4.89
2017-11-29T13:32:46.525Z,4.91
2017-11-29T13:33:52.913Z,4.90
2017-11-29T13:34:58.325Z,4.90
2017-11-29T13:36:04.044Z,4.90
2017-11-29T13:37:09.276Z,4.89
2017-11-29T13:38:14.717Z,4.88
2017-11-29T13:39:19.996Z,4.86
2017-11-29T13:40:26.778Z,4.73
2017-11-29T13:41:32.159Z,4.62
2017-11-29T13:42:37.541Z,4.64
2017-11-29T13:43:43.012Z,4.63
2017-11-29T13:44:48.529Z,4.67
2017-11-29T13:45:54.532Z,4.61
2017-11-29T13:47:03.555Z,4.59
2017-11-29T13:48:09.091Z,4.58
2017-11-29T13:49:14.488Z,4.53
2017-11-29T13:50:19.892Z,4.57
2017-11-29T13:51:25.333Z,4.50
2017-11-29T13:52:30.776Z,4.53
2017-11-29T13:53:36.196Z,4.56
2017-11-29T13:54:41.617Z,4.52
2017-11-29T13:55:47.050Z,4.54
2017-11-29T13:56:52.243Z,4.50
2017-11-29T13:57:58.056Z,4.40
2017-11-29T13:59:03.436Z,4.40
2017-11-29T14:00:08.809Z,4.29
2017-11-29T14:01:14.041Z,4.33
2017-11-29T14:02:19.213Z,4.34
2017-11-29T14:03:27.043Z,4.30
2017-11-29T14:04:32.597Z,4.31
2017-11-29T14:05:37.980Z,4.30
2017-11-29T14:06:43.152Z,4.35
2017-11-29T14:07:48.892Z,4.25
2017-11-29T14:08:54.648Z,4.27
2017-11-29T14:10:00.517Z,4.23
2017-11-29T14:11:06.041Z,4.17
2017-11-29T14:12:11.785Z,4.14
2017-11-29T14:13:17.917Z,4.11
2017-11-29T14:14:24.009Z,4.10
2017-11-29T14:15:30.077Z,4.14
2017-11-29T14:16:36.214Z,4.10
2017-11-29T14:17:42.349Z,4.10
2017-11-29T14:18:48.446Z,4.07
2017-11-29T14:19:54.564Z,4.08
2017-11-29T14:21:00.725Z,4.03
2017-11-29T14:22:06.626Z,4.01
2017-11-29T14:23:12.704Z,4.05
2017-11-29T14:24:18.621Z,3.96
2017-11-29T14:25:24.715Z,3.96
2017-11-29T14:26:30.802Z,3.93
2017-11-29T14:27:36.731Z,3.88
2017-11-29T14:28:42.787Z,3.88
2017-11-29T14:29:48.829Z,3.89
2017-11-29T14:30:54.890Z,3.84
2017-11-29T14:32:01.016Z,3.85
2017-11-29T14:33:07.222Z,3.85
2017-11-29T14:34:13.351Z,3.85
2017-11-29T14:35:19.421Z,3.86
2017-11-29T14:36:25.190Z,3.87
2017-11-29T14:37:30.961Z,3.86
2017-11-29T14:38:36.879Z,3.89
2017-11-29T14:39:42.989Z,3.89
2017-11-29T14:40:49.125Z,3.88
2017-11-29T14:41:55.079Z,3.90
2017-11-29T14:43:01.397Z,3.82
2017-11-29T14:44:07.479Z,3.84
2017-11-29T14:45:13.373Z,3.83
2017-11-29T14:46:19.480Z,3.80
2017-11-29T14:47:25.628Z,3.80
2017-11-29T14:48:31.774Z,3.78